РУС

ENG

 
  Pireps - S7
 

Рейс SBI1237

  • Выполнял: Aleksandr Kudriavtsev
  • Аэропорт отправления: Domodedovo Airport (UUDD)
  • Аэропорт назначения: Saratov Gagarin (UWSG)
  • Тип ВС: A320-214 (RA-73403)
  • Время полёта: 01.27
  • Дата полёта: 11.03.2023
  • Статус: Одобрен

Детали полёта
Gross Revenue:
(140 load / $ 0.00 per unit
$ 0.00
Fuel Cost:
(2647 fuel used @ 5.1 / unit)
$ 13, 499.70


Дополнительная информация о полёте:

Лог

Aircraft Used in flight is Airbus A320 Neo S7
12:03 Boarding
12:03 Brakes are On
12:04 Strobe Lights ON at 590 AGL
12:04 Beacon Lights ON at 590 AGL
12:04 Navigation Lights ON at 590 AGL
12:04Flaps 2 Selected at 590ft and 0kts
12:05 Engine 2 Started
12:10 Engine 1 Started
12:13 Taxi Lights ON at 590 AGL
12:13 Brakes are Released
12:24 You Took off @ 138 Knots and Flaps at Position 2
Departure Weather
UUDD 110900Z 14008MPS 7000 -SN BKN014 M05/M08 Q1007 R88/590237 TEMPO 1000 SN
12:24 Paused
12:24 Unpaused
12:24 Landing Gear Up @ 144 Knots and 940 Feet
12:25Flaps 1 Selected at 1440ft and 206kts
12:25Flaps Retracted at 1650ft and 221kts
12:26 Taxi Lights OFF at 3790 AGL
12:29 Below 10000 feet you are not allowed to go over 250 knots
13:26Flaps 1 Selected at 5450ft and 209kts
13:26 Landing Lights ON at 5340 AGL
13:29Flaps 2 Selected at 840ft and 194kts
13:29 Landing Gear Down @ 193 Knots and 840 Feet
13:29Flaps 3 Selected at 820ft and 192kts
13:30Flaps 4 Selected at 650ft and 181kts
13:30Flaps 5 Selected at 410ft and 157kts
13:30 You Landed @ 133 Knots and with -450 Vertical Speed
Arrival Weather
UWSG 110830Z 11004MPS 080V150 9999 FEW026 03/M03 Q1015 R08/110068 NOSIG RMK QFE759/1012
13:30 Paused
13:31 Taxi Lights ON at 100 AGL
13:31 Landing Lights OFF at 100 AGL
13:31 Unpaused
13:31 Taxiing to gate
13:31 Engine 1 Stoped
13:31 Engine 2 Stoped
13:31 Paused
13:31 Unpaused
13:31 Brakes are On
Pirep logged with S7 Tracking 1.0.0.14


!!! Превышение допустимого значения вертикальной скорости при посадке: -5%


Общая оценка полета : 95%




Route Map



 
 
   
 
Новости

09.11.2022 - Discord

Добавляйтесь в наш дискорд канал:

нажми для перехода




   
 
Авторизация






Регистрация

Восстановить пароль?

Мы в соц. сетях

      



   
 





   
 


   
 


Яндекс.Метрика

www.va-s7.ru 2011-2023
Все права защищены.



Минуточку внимания!
Сайт va-s7.ru не является коммерческим проектом. Мы не имеем отношения к торговым маркам "S7" и "Globus" и их представителям.
Эмблемы на сайте являются собственностью соответствующих компаний.

аэронавигационная метеорологическая и любая другая информация с данного ресурса ни в коем случае не должна использоваться для реальных полетов